sensor_id;sensor_type;location;lat;lon;timestamp;pressure;altitude;pressure_sealevel;temperature;humidity
7824;BME280;3957;48.61947800;9.05303100;2023-03-04T00:00:43;96512.94;;;-0.70;100.00
7824;BME280;3957;48.61947800;9.05303100;2023-03-04T00:01:45;96512.34;;;-0.73;100.00
7824;BME280;3957;48.61947800;9.05303100;2023-03-04T00:02:46;96513.09;;;-0.82;100.00
7824;BME280;3957;48.61947800;9.05303100;2023-03-04T00:03:46;96517.25;;;-0.91;100.00
7824;BME280;3957;48.61947800;9.05303100;2023-03-04T00:04:46;96520.63;;;-1.00;100.00
7824;BME280;3957;48.61947800;9.05303100;2023-03-04T00:05:47;96515.97;;;-1.08;100.00
7824;BME280;3957;48.61947800;9.05303100;2023-03-04T00:06:47;96516.34;;;-1.13;100.00
7824;BME280;3957;48.61947800;9.05303100;2023-03-04T00:07:48;96514.31;;;-1.21;100.00
7824;BME280;3957;48.61947800;9.05303100;2023-03-04T00:08:48;96520.28;;;-1.30;100.00
7824;BME280;3957;48.61947800;9.05303100;2023-03-04T00:09:48;96519.81;;;-1.35;100.00
7824;BME280;3957;48.61947800;9.05303100;2023-03-04T00:10:49;96515.75;;;-1.39;100.00
7824;BME280;3957;48.61947800;9.05303100;2023-03-04T00:11:49;96514.09;;;-1.40;100.00
7824;BME280;3957;48.61947800;9.05303100;2023-03-04T00:12:49;96512.41;;;-1.41;100.00
7824;BME280;3957;48.61947800;9.05303100;2023-03-04T00:13:50;96520.16;;;-1.40;100.00
7824;BME280;3957;48.61947800;9.05303100;2023-03-04T00:14:51;96517.66;;;-1.41;100.00
7824;BME280;3957;48.61947800;9.05303100;2023-03-04T00:15:51;96517.91;;;-1.44;100.00
7824;BME280;3957;48.61947800;9.05303100;2023-03-04T00:16:52;96521.72;;;-1.48;100.00
7824;BME280;3957;48.61947800;9.05303100;2023-03-04T00:17:52;96512.66;;;-1.56;100.00
7824;BME280;3957;48.61947800;9.05303100;2023-03-04T00:18:54;96520.28;;;-1.64;100.00
7824;BME280;3957;48.61947800;9.05303100;2023-03-04T00:19:54;96516.44;;;-1.71;100.00
7824;BME280;3957;48.61947800;9.05303100;2023-03-04T00:20:55;96522.75;;;-1.74;100.00
7824;BME280;3957;48.61947800;9.05303100;2023-03-04T00:21:55;96508.22;;;-1.78;100.00
7824;BME280;3957;48.61947800;9.05303100;2023-03-04T00:22:56;96516.19;;;-1.79;100.00
7824;BME280;3957;48.61947800;9.05303100;2023-03-04T00:23:56;96513.44;;;-1.78;100.00
7824;BME280;3957;48.61947800;9.05303100;2023-03-04T00:24:57;96511.78;;;-1.79;100.00
7824;BME280;3957;48.61947800;9.05303100;2023-03-04T00:25:57;96515.34;;;-1.80;100.00
7824;BME280;3957;48.61947800;9.05303100;2023-03-04T00:26:58;96517.50;;;-1.74;100.00
7824;BME280;3957;48.61947800;9.05303100;2023-03-04T00:27:58;96514.03;;;-1.74;100.00
7824;BME280;3957;48.61947800;9.05303100;2023-03-04T00:28:59;96517.03;;;-1.79;100.00
7824;BME280;3957;48.61947800;9.05303100;2023-03-04T00:30:00;96513.78;;;-1.82;100.00
7824;BME280;3957;48.61947800;9.05303100;2023-03-04T00:31:00;96522.94;;;-1.88;100.00
7824;BME280;3957;48.61947800;9.05303100;2023-03-04T00:32:00;96513.31;;;-1.88;100.00
7824;BME280;3957;48.61947800;9.05303100;2023-03-04T00:33:01;96515.31;;;-1.91;100.00
7824;BME280;3957;48.61947800;9.05303100;2023-03-04T00:34:01;96519.75;;;-1.92;100.00
7824;BME280;3957;48.61947800;9.05303100;2023-03-04T00:35:02;96510.31;;;-1.94;100.00
7824;BME280;3957;48.61947800;9.05303100;2023-03-04T00:36:03;96508.06;;;-1.99;100.00
7824;BME280;3957;48.61947800;9.05303100;2023-03-04T00:37:03;96509.22;;;-2.03;100.00
7824;BME280;3957;48.61947800;9.05303100;2023-03-04T00:38:03;96513.97;;;-2.08;100.00
7824;BME280;3957;48.61947800;9.05303100;2023-03-04T00:39:04;96510.63;;;-2.10;100.00
7824;BME280;3957;48.61947800;9.05303100;2023-03-04T00:40:05;96511.69;;;-2.13;100.00
7824;BME280;3957;48.61947800;9.05303100;2023-03-04T00:41:05;96506.69;;;-2.16;100.00
7824;BME280;3957;48.61947800;9.05303100;2023-03-04T00:42:07;96508.72;;;-2.19;100.00
7824;BME280;3957;48.61947800;9.05303100;2023-03-04T00:43:07;96514.66;;;-2.17;100.00
7824;BME280;3957;48.61947800;9.05303100;2023-03-04T00:44:08;96504.41;;;-2.20;100.00
7824;BME280;3957;48.61947800;9.05303100;2023-03-04T00:45:09;96507.16;;;-2.22;100.00
7824;BME280;3957;48.61947800;9.05303100;2023-03-04T00:46:09;96509.88;;;-2.24;100.00
7824;BME280;3957;48.61947800;9.05303100;2023-03-04T00:47:10;96510.94;;;-2.26;100.00
7824;BME280;3957;48.61947800;9.05303100;2023-03-04T00:48:10;96503.06;;;-2.26;100.00
7824;BME280;3957;48.61947800;9.05303100;2023-03-04T00:49:10;96509.16;;;-2.26;100.00
7824;BME280;3957;48.61947800;9.05303100;2023-03-04T00:50:11;96511.53;;;-2.23;100.00
7824;BME280;3957;48.61947800;9.05303100;2023-03-04T00:51:11;96507.97;;;-2.22;100.00
7824;BME280;3957;48.61947800;9.05303100;2023-03-04T00:52:12;96512.38;;;-2.22;100.00
7824;BME280;3957;48.61947800;9.05303100;2023-03-04T00:53:12;96507.34;;;-2.25;100.00
7824;BME280;3957;48.61947800;9.05303100;2023-03-04T00:54:13;96511.75;;;-2.26;100.00
7824;BME280;3957;48.61947800;9.05303100;2023-03-04T00:55:13;96510.09;;;-2.27;100.00
7824;BME280;3957;48.61947800;9.05303100;2023-03-04T00:56:13;96506.53;;;-2.26;100.00
7824;BME280;3957;48.61947800;9.05303100;2023-03-04T00:57:14;96502.47;;;-2.30;100.00
7824;BME280;3957;48.61947800;9.05303100;2023-03-04T00:58:14;96506.66;;;-2.27;100.00
7824;BME280;3957;48.61947800;9.05303100;2023-03-04T00:59:15;96503.28;;;-2.29;100.00
7824;BME280;3957;48.61947800;9.05303100;2023-03-04T01:00:15;96500.56;;;-2.28;100.00
7824;BME280;3957;48.61947800;9.05303100;2023-03-04T01:01:16;96500.34;;;-2.25;100.00
7824;BME280;3957;48.61947800;9.05303100;2023-03-04T01:02:16;96502.03;;;-2.24;100.00
7824;BME280;3957;48.61947800;9.05303100;2023-03-04T01:03:16;96503.78;;;-2.24;100.00
7824;BME280;3957;48.61947800;9.05303100;2023-03-04T01:04:17;96504.84;;;-2.27;100.00
7824;BME280;3957;48.61947800;9.05303100;2023-03-04T01:05:17;96503.91;;;-2.26;100.00
7824;BME280;3957;48.61947800;9.05303100;2023-03-04T01:06:18;96503.06;;;-2.26;100.00
7824;BME280;3957;48.61947800;9.05303100;2023-03-04T01:07:18;96501.41;;;-2.27;100.00
7824;BME280;3957;48.61947800;9.05303100;2023-03-04T01:08:19;96498.03;;;-2.29;100.00
7824;BME280;3957;48.61947800;9.05303100;2023-03-04T01:09:19;96499.84;;;-2.30;100.00
7824;BME280;3957;48.61947800;9.05303100;2023-03-04T01:10:20;96495.41;;;-2.29;100.00
7824;BME280;3957;48.61947800;9.05303100;2023-03-04T01:11:20;96500.66;;;-2.29;100.00
7824;BME280;3957;48.61947800;9.05303100;2023-03-04T01:12:20;96502.47;;;-2.30;100.00
7824;BME280;3957;48.61947800;9.05303100;2023-03-04T01:13:21;96501.63;;;-2.30;100.00
7824;BME280;3957;48.61947800;9.05303100;2023-03-04T01:14:22;96502.47;;;-2.30;100.00
7824;BME280;3957;48.61947800;9.05303100;2023-03-04T01:15:22;96506.88;;;-2.30;100.00
7824;BME280;3957;48.61947800;9.05303100;2023-03-04T01:16:23;96500.78;;;-2.31;100.00
7824;BME280;3957;48.61947800;9.05303100;2023-03-04T01:17:23;96500.91;;;-2.32;100.00
7824;BME280;3957;48.61947800;9.05303100;2023-03-04T01:18:24;96501.53;;;-2.29;100.00
7824;BME280;3957;48.61947800;9.05303100;2023-03-04T01:19:24;96501.41;;;-2.27;100.00
7824;BME280;3957;48.61947800;9.05303100;2023-03-04T01:20:25;96499.94;;;-2.07;100.00
7824;BME280;3957;48.61947800;9.05303100;2023-03-04T01:21:26;96499.22;;;-1.98;100.00
7824;BME280;3957;48.61947800;9.05303100;2023-03-04T01:22:26;96501.59;;;-1.95;100.00
7824;BME280;3957;48.61947800;9.05303100;2023-03-04T01:23:26;96495.06;;;-1.89;100.00
7824;BME280;3957;48.61947800;9.05303100;2023-03-04T01:24:27;96497.47;;;-1.86;100.00
7824;BME280;3957;48.61947800;9.05303100;2023-03-04T01:25:29;96499.22;;;-1.86;100.00
7824;BME280;3957;48.61947800;9.05303100;2023-03-04T01:26:29;96497.34;;;-1.84;100.00
7824;BME280;3957;48.61947800;9.05303100;2023-03-04T01:27:29;96500.66;;;-1.82;100.00
7824;BME280;3957;48.61947800;9.05303100;2023-03-04T01:28:30;96497.59;;;-1.76;100.00
7824;BME280;3957;48.61947800;9.05303100;2023-03-04T01:29:34;96488.03;;;-1.77;100.00
7824;BME280;3957;48.61947800;9.05303100;2023-03-04T01:30:35;96493.53;;;-1.80;100.00
7824;BME280;3957;48.61947800;9.05303100;2023-03-04T01:31:36;96484.34;;;-1.75;100.00
7824;BME280;3957;48.61947800;9.05303100;2023-03-04T01:32:36;96489.47;;;-1.73;100.00
7824;BME280;3957;48.61947800;9.05303100;2023-03-04T01:33:37;96491.28;;;-1.74;100.00
7824;BME280;3957;48.61947800;9.05303100;2023-03-04T01:34:37;96496.03;;;-1.79;100.00
7824;BME280;3957;48.61947800;9.05303100;2023-03-04T01:35:37;96494.47;;;-1.81;100.00
7824;BME280;3957;48.61947800;9.05303100;2023-03-04T01:36:38;96494.09;;;-1.88;100.00
7824;BME280;3957;48.61947800;9.05303100;2023-03-04T01:37:38;96496.97;;;-1.91;100.00
7824;BME280;3957;48.61947800;9.05303100;2023-03-04T01:38:39;96491.97;;;-1.94;100.00
7824;BME280;3957;48.61947800;9.05303100;2023-03-04T01:39:41;96488.84;;;-1.88;100.00
7824;BME280;3957;48.61947800;9.05303100;2023-03-04T01:40:41;96494.72;;;-1.84;100.00
7824;BME280;3957;48.61947800;9.05303100;2023-03-04T01:41:42;96495.31;;;-1.81;100.00
7824;BME280;3957;48.61947800;9.05303100;2023-03-04T01:42:43;96487.81;;;-1.74;100.00
7824;BME280;3957;48.61947800;9.05303100;2023-03-04T01:43:44;96494.16;;;-1.77;100.00
7824;BME280;3957;48.61947800;9.05303100;2023-03-04T01:44:45;96500.91;;;-1.74;100.00
7824;BME280;3957;48.61947800;9.05303100;2023-03-04T01:45:47;96483.75;;;-1.78;100.00
7824;BME280;3957;48.61947800;9.05303100;2023-03-04T01:46:51;96488.03;;;-1.77;100.00
7824;BME280;3957;48.61947800;9.05303100;2023-03-04T01:47:52;96488.78;;;-1.75;100.00
7824;BME280;3957;48.61947800;9.05303100;2023-03-04T01:48:53;96491.63;;;-1.78;100.00
7824;BME280;3957;48.61947800;9.05303100;2023-03-04T01:49:55;96493.66;;;-1.82;100.00
7824;BME280;3957;48.61947800;9.05303100;2023-03-04T01:50:56;96498.41;;;-1.87;100.00
7824;BME280;3957;48.61947800;9.05303100;2023-03-04T01:51:58;96493.16;;;-1.87;100.00
7824;BME280;3957;48.61947800;9.05303100;2023-03-04T01:53:01;96489.72;;;-1.88;100.00
7824;BME280;3957;48.61947800;9.05303100;2023-03-04T01:54:02;96486.97;;;-1.86;100.00
7824;BME280;3957;48.61947800;9.05303100;2023-03-04T01:55:08;96487.56;;;-1.82;100.00
7824;BME280;3957;48.61947800;9.05303100;2023-03-04T01:56:14;96493.41;;;-1.79;100.00
7824;BME280;3957;48.61947800;9.05303100;2023-03-04T01:57:17;96490.91;;;-1.80;100.00
7824;BME280;3957;48.61947800;9.05303100;2023-03-04T01:58:18;96485.19;;;-1.74;100.00
7824;BME280;3957;48.61947800;9.05303100;2023-03-04T01:59:22;96478.63;;;-1.80;100.00
7824;BME280;3957;48.61947800;9.05303100;2023-03-04T02:01:25;96485.28;;;-1.87;100.00
7824;BME280;3957;48.61947800;9.05303100;2023-03-04T02:02:25;96482.91;;;-1.90;100.00
7824;BME280;3957;48.61947800;9.05303100;2023-03-04T02:03:26;96481.09;;;-1.90;100.00
7824;BME280;3957;48.61947800;9.05303100;2023-03-04T02:04:30;96480.41;;;-1.92;100.00
7824;BME280;3957;48.61947800;9.05303100;2023-03-04T02:05:31;96483.22;;;-1.95;100.00
7824;BME280;3957;48.61947800;9.05303100;2023-03-04T02:06:33;96481.09;;;-2.01;100.00
7824;BME280;3957;48.61947800;9.05303100;2023-03-04T02:07:35;96477.03;;;-2.05;100.00
7824;BME280;3957;48.61947800;9.05303100;2023-03-04T02:08:35;96481.44;;;-2.06;100.00
7824;BME280;3957;48.61947800;9.05303100;2023-03-04T02:09:36;96472.16;;;-1.98;100.00
7824;BME280;3957;48.61947800;9.05303100;2023-03-04T02:10:37;96471.69;;;-1.92;100.00
7824;BME280;3957;48.61947800;9.05303100;2023-03-04T02:11:39;96473.22;;;-2.01;100.00
7824;BME280;3957;48.61947800;9.05303100;2023-03-04T02:12:40;96482.63;;;-2.10;100.00
7824;BME280;3957;48.61947800;9.05303100;2023-03-04T02:13:40;96470.91;;;-2.17;100.00
7824;BME280;3957;48.61947800;9.05303100;2023-03-04T02:14:41;96474.94;;;-2.24;100.00
7824;BME280;3957;48.61947800;9.05303100;2023-03-04T02:15:43;96472.09;;;-2.21;100.00
7824;BME280;3957;48.61947800;9.05303100;2023-03-04T02:16:45;96472.59;;;-2.16;100.00
7824;BME280;3957;48.61947800;9.05303100;2023-03-04T02:17:45;96469.25;;;-2.18;100.00
7824;BME280;3957;48.61947800;9.05303100;2023-03-04T02:18:46;96473.06;;;-2.22;100.00
7824;BME280;3957;48.61947800;9.05303100;2023-03-04T02:20:00;96468.78;;;-2.12;100.00
7824;BME280;3957;48.61947800;9.05303100;2023-03-04T02:21:08;96473.53;;;-2.17;100.00
7824;BME280;3957;48.61947800;9.05303100;2023-03-04T02:22:10;96475.56;;;-2.20;100.00
7824;BME280;3957;48.61947800;9.05303100;2023-03-04T02:23:26;96474.13;;;-2.25;100.00
7824;BME280;3957;48.61947800;9.05303100;2023-03-04T02:24:30;96469.13;;;-2.28;100.00
7824;BME280;3957;48.61947800;9.05303100;2023-03-04T02:27:13;96473.47;;;-2.40;100.00
7824;BME280;3957;48.61947800;9.05303100;2023-03-04T02:28:14;96466.56;;;-2.41;100.00
7824;BME280;3957;48.61947800;9.05303100;2023-03-04T02:29:16;96465.63;;;-2.40;100.00
7824;BME280;3957;48.61947800;9.05303100;2023-03-04T02:30:20;96468.00;;;-2.36;100.00
7824;BME280;3957;48.61947800;9.05303100;2023-03-04T02:31:33;96470.34;;;-2.45;100.00
7824;BME280;3957;48.61947800;9.05303100;2023-03-04T02:32:34;96467.03;;;-2.47;100.00
7824;BME280;3957;48.61947800;9.05303100;2023-03-04T02:33:34;96465.81;;;-2.54;100.00
7824;BME280;3957;48.61947800;9.05303100;2023-03-04T02:34:35;96464.72;;;-2.51;100.00
7824;BME280;3957;48.61947800;9.05303100;2023-03-04T02:35:35;96470.19;;;-2.54;100.00
7824;BME280;3957;48.61947800;9.05303100;2023-03-04T02:36:37;96462.56;;;-2.58;100.00
7824;BME280;3957;48.61947800;9.05303100;2023-03-04T02:37:38;96476.84;;;-2.62;100.00
7824;BME280;3957;48.61947800;9.05303100;2023-03-04T02:38:39;96470.50;;;-2.70;100.00
7824;BME280;3957;48.61947800;9.05303100;2023-03-04T02:39:42;96475.94;;;-2.74;100.00
7824;BME280;3957;48.61947800;9.05303100;2023-03-04T02:40:47;96470.28;;;-2.67;100.00
7824;BME280;3957;48.61947800;9.05303100;2023-03-04T02:41:51;96472.28;;;-2.71;100.00
7824;BME280;3957;48.61947800;9.05303100;2023-03-04T02:42:53;96470.72;;;-2.74;100.00
7824;BME280;3957;48.61947800;9.05303100;2023-03-04T02:43:54;96474.28;;;-2.75;100.00
7824;BME280;3957;48.61947800;9.05303100;2023-03-04T02:44:59;96477.03;;;-2.76;100.00
7824;BME280;3957;48.61947800;9.05303100;2023-03-04T02:46:00;96478.47;;;-2.72;100.00
7824;BME280;3957;48.61947800;9.05303100;2023-03-04T02:47:00;96475.88;;;-2.72;100.00
7824;BME280;3957;48.61947800;9.05303100;2023-03-04T02:48:01;96483.13;;;-2.64;100.00
7824;BME280;3957;48.61947800;9.05303100;2023-03-04T02:49:02;96479.59;;;-2.63;100.00
7824;BME280;3957;48.61947800;9.05303100;2023-03-04T02:50:03;96471.38;;;-2.59;100.00
7824;BME280;3957;48.61947800;9.05303100;2023-03-04T02:51:04;96475.28;;;-2.40;100.00
7824;BME280;3957;48.61947800;9.05303100;2023-03-04T02:52:13;96473.47;;;-2.40;100.00
7824;BME280;3957;48.61947800;9.05303100;2023-03-04T02:53:14;96474.53;;;-2.42;100.00
7824;BME280;3957;48.61947800;9.05303100;2023-03-04T02:54:21;96471.22;;;-2.44;100.00
7824;BME280;3957;48.61947800;9.05303100;2023-03-04T02:55:22;96469.75;;;-2.48;100.00
7824;BME280;3957;48.61947800;9.05303100;2023-03-04T02:56:22;96475.47;;;-2.43;100.00
7824;BME280;3957;48.61947800;9.05303100;2023-03-04T02:57:23;96474.03;;;-2.47;100.00
7824;BME280;3957;48.61947800;9.05303100;2023-03-04T02:58:27;96479.78;;;-2.42;100.00
7824;BME280;3957;48.61947800;9.05303100;2023-03-04T02:59:28;96473.47;;;-2.40;100.00
7824;BME280;3957;48.61947800;9.05303100;2023-03-04T03:00:29;96471.47;;;-2.36;100.00
7824;BME280;3957;48.61947800;9.05303100;2023-03-04T03:01:29;96471.25;;;-2.33;100.00
7824;BME280;3957;48.61947800;9.05303100;2023-03-04T03:02:30;96469.69;;;-2.35;100.00
7824;BME280;3957;48.61947800;9.05303100;2023-03-04T03:03:31;96474.91;;;-2.35;100.00
7824;BME280;3957;48.61947800;9.05303100;2023-03-04T03:04:31;96467.72;;;-2.45;100.00
7824;BME280;3957;48.61947800;9.05303100;2023-03-04T03:05:33;96467.34;;;-2.51;100.00
7824;BME280;3957;48.61947800;9.05303100;2023-03-04T03:06:34;96469.88;;;-2.50;100.00
7824;BME280;3957;48.61947800;9.05303100;2023-03-04T03:07:35;96471.66;;;-2.50;100.00
7824;BME280;3957;48.61947800;9.05303100;2023-03-04T03:08:35;96476.66;;;-2.47;100.00
7824;BME280;3957;48.61947800;9.05303100;2023-03-04T03:09:36;96470.09;;;-2.53;100.00
7824;BME280;3957;48.61947800;9.05303100;2023-03-04T03:10:36;96465.47;;;-2.49;100.00
7824;BME280;3957;48.61947800;9.05303100;2023-03-04T03:11:38;96468.53;;;-2.56;100.00
7824;BME280;3957;48.61947800;9.05303100;2023-03-04T03:12:39;96474.50;;;-2.53;100.00
7824;BME280;3957;48.61947800;9.05303100;2023-03-04T03:13:39;96472.50;;;-2.50;100.00
7824;BME280;3957;48.61947800;9.05303100;2023-03-04T03:14:40;96467.34;;;-2.51;100.00
7824;BME280;3957;48.61947800;9.05303100;2023-03-04T03:15:42;96467.00;;;-2.58;100.00
7824;BME280;3957;48.61947800;9.05303100;2023-03-04T03:16:44;96473.28;;;-2.61;100.00
7824;BME280;3957;48.61947800;9.05303100;2023-03-04T03:17:45;96470.66;;;-2.61;100.00
7824;BME280;3957;48.61947800;9.05303100;2023-03-04T03:18:45;96473.69;;;-2.54;100.00
7824;BME280;3957;48.61947800;9.05303100;2023-03-04T03:19:45;96472.22;;;-2.58;100.00
7824;BME280;3957;48.61947800;9.05303100;2023-03-04T03:20:46;96478.19;;;-2.56;100.00
7824;BME280;3957;48.61947800;9.05303100;2023-03-04T03:21:46;96474.78;;;-2.45;100.00
7824;BME280;3957;48.61947800;9.05303100;2023-03-04T03:22:47;96475.72;;;-2.46;100.00
7824;BME280;3957;48.61947800;9.05303100;2023-03-04T03:23:48;96478.44;;;-2.48;100.00
7824;BME280;3957;48.61947800;9.05303100;2023-03-04T03:24:48;96479.66;;;-2.41;100.00
7824;BME280;3957;48.61947800;9.05303100;2023-03-04T03:25:49;96468.97;;;-2.37;100.00
7824;BME280;3957;48.61947800;9.05303100;2023-03-04T03:26:49;96468.75;;;-2.34;100.00
7824;BME280;3957;48.61947800;9.05303100;2023-03-04T03:27:49;96472.41;;;-2.37;100.00
7824;BME280;3957;48.61947800;9.05303100;2023-03-04T03:28:50;96467.28;;;-2.38;100.00
7824;BME280;3957;48.61947800;9.05303100;2023-03-04T03:29:50;96470.50;;;-2.35;100.00
7824;BME280;3957;48.61947800;9.05303100;2023-03-04T03:30:51;96468.97;;;-2.37;100.00
7824;BME280;3957;48.61947800;9.05303100;2023-03-04T03:31:51;96475.28;;;-2.40;100.00
7824;BME280;3957;48.61947800;9.05303100;2023-03-04T03:32:54;96468.25;;;-2.40;100.00
7824;BME280;3957;48.61947800;9.05303100;2023-03-04T03:33:54;96477.66;;;-2.37;100.00
7824;BME280;3957;48.61947800;9.05303100;2023-03-04T03:34:55;96467.28;;;-2.38;100.00
7824;BME280;3957;48.61947800;9.05303100;2023-03-04T03:35:55;96468.25;;;-2.40;100.00
7824;BME280;3957;48.61947800;9.05303100;2023-03-04T03:36:56;96474.03;;;-2.47;100.00
7824;BME280;3957;48.61947800;9.05303100;2023-03-04T03:37:57;96465.69;;;-2.52;100.00
7824;BME280;3957;48.61947800;9.05303100;2023-03-04T03:38:57;96469.16;;;-2.52;100.00
7824;BME280;3957;48.61947800;9.05303100;2023-03-04T03:39:58;96480.09;;;-2.58;100.00
7824;BME280;3957;48.61947800;9.05303100;2023-03-04T03:40:58;96475.41;;;-2.66;100.00
7824;BME280;3957;48.61947800;9.05303100;2023-03-04T03:41:58;96472.38;;;-2.72;100.00
7824;BME280;3957;48.61947800;9.05303100;2023-03-04T03:42:59;96469.25;;;-2.78;100.00
7824;BME280;3957;48.61947800;9.05303100;2023-03-04T03:43:59;96470.72;;;-2.74;100.00
7824;BME280;3957;48.61947800;9.05303100;2023-03-04T03:45:00;96471.78;;;-2.76;100.00
7824;BME280;3957;48.61947800;9.05303100;2023-03-04T03:46:01;96471.56;;;-2.73;100.00
7824;BME280;3957;48.61947800;9.05303100;2023-03-04T03:47:02;96472.72;;;-2.77;100.00
7824;BME280;3957;48.61947800;9.05303100;2023-03-04T03:48:03;96477.22;;;-2.79;100.00
7824;BME280;3957;48.61947800;9.05303100;2023-03-04T03:49:03;96475.78;;;-2.83;100.00
7824;BME280;3957;48.61947800;9.05303100;2023-03-04T03:50:04;96470.94;;;-2.77;100.00
7824;BME280;3957;48.61947800;9.05303100;2023-03-04T03:51:05;96465.69;;;-2.77;100.00
7824;BME280;3957;48.61947800;9.05303100;2023-03-04T03:52:05;96475.88;;;-2.72;100.00
7824;BME280;3957;48.61947800;9.05303100;2023-03-04T03:53:07;96467.38;;;-2.76;100.00
7824;BME280;3957;48.61947800;9.05303100;2023-03-04T03:54:08;96477.84;;;-2.76;100.00
7824;BME280;3957;48.61947800;9.05303100;2023-03-04T03:55:09;96471.44;;;-2.71;100.00
7824;BME280;3957;48.61947800;9.05303100;2023-03-04T03:56:09;96474.28;;;-2.75;100.00
7824;BME280;3957;48.61947800;9.05303100;2023-03-04T03:57:10;96470.94;;;-2.77;100.00
7824;BME280;3957;48.61947800;9.05303100;2023-03-04T03:58:10;96472.16;;;-2.69;100.00
7824;BME280;3957;48.61947800;9.05303100;2023-03-04T03:59:10;96473.13;;;-2.70;100.00
7824;BME280;3957;48.61947800;9.05303100;2023-03-04T04:00:12;96462.75;;;-2.72;100.00
7824;BME280;3957;48.61947800;9.05303100;2023-03-04T04:01:12;96469.53;;;-2.69;100.00
7824;BME280;3957;48.61947800;9.05303100;2023-03-04T04:02:13;96473.44;;;-2.75;100.00
7824;BME280;3957;48.61947800;9.05303100;2023-03-04T04:03:14;96470.72;;;-2.74;100.00
7824;BME280;3957;48.61947800;9.05303100;2023-03-04T04:04:15;96475.47;;;-2.79;100.00
7824;BME280;3957;48.61947800;9.05303100;2023-03-04T04:05:16;96476.94;;;-2.87;100.00
7824;BME280;3957;48.61947800;9.05303100;2023-03-04T04:06:16;96468.28;;;-2.88;100.00
7824;BME280;3957;48.61947800;9.05303100;2023-03-04T04:07:16;96471.22;;;-2.93;100.00
7824;BME280;3957;48.61947800;9.05303100;2023-03-04T04:08:17;96472.16;;;-2.94;100.00
7824;BME280;3957;48.61947800;9.05303100;2023-03-04T04:09:18;96478.13;;;-2.92;100.00
7824;BME280;3957;48.61947800;9.05303100;2023-03-04T04:10:18;96469.22;;;-2.89;100.00
7824;BME280;3957;48.61947800;9.05303100;2023-03-04T04:11:19;96471.72;;;-2.87;100.00
7824;BME280;3957;48.61947800;9.05303100;2023-03-04T04:12:20;96467.53;;;-2.90;100.00
7824;BME280;3957;48.61947800;9.05303100;2023-03-04T04:13:20;96474.97;;;-2.84;100.00
7824;BME280;3957;48.61947800;9.05303100;2023-03-04T04:14:21;96468.97;;;-2.86;100.00
7824;BME280;3957;48.61947800;9.05303100;2023-03-04T04:15:21;96474.56;;;-2.91;100.00
7824;BME280;3957;48.61947800;9.05303100;2023-03-04T04:16:21;96468.22;;;-2.99;100.00
7824;BME280;3957;48.61947800;9.05303100;2023-03-04T04:17:22;96472.50;;;-2.98;100.00
7824;BME280;3957;48.61947800;9.05303100;2023-03-04T04:18:22;96468.09;;;-2.98;100.00
7824;BME280;3957;48.61947800;9.05303100;2023-03-04T04:19:25;96464.03;;;-3.02;100.00
7824;BME280;3957;48.61947800;9.05303100;2023-03-04T04:20:25;96461.63;;;-3.05;100.00
7824;BME280;3957;48.61947800;9.05303100;2023-03-04T04:21:25;96467.59;;;-3.03;100.00
7824;BME280;3957;48.61947800;9.05303100;2023-03-04T04:22:26;96463.50;;;-3.07;100.00
7824;BME280;3957;48.61947800;9.05303100;2023-03-04T04:23:26;96469.81;;;-3.10;100.00
7824;BME280;3957;48.61947800;9.05303100;2023-03-04T04:24:27;96459.97;;;-3.06;100.00
7824;BME280;3957;48.61947800;9.05303100;2023-03-04T04:25:27;96469.25;;;-3.02;100.00
7824;BME280;3957;48.61947800;9.05303100;2023-03-04T04:26:28;96465.25;;;-2.95;100.00
7824;BME280;3957;48.61947800;9.05303100;2023-03-04T04:27:28;96470.72;;;-2.98;100.00
7824;BME280;3957;48.61947800;9.05303100;2023-03-04T04:28:29;96462.28;;;-2.90;100.00
7824;BME280;3957;48.61947800;9.05303100;2023-03-04T04:29:29;96459.78;;;-2.92;100.00
7824;BME280;3957;48.61947800;9.05303100;2023-03-04T04:30:30;96466.69;;;-2.91;100.00
7824;BME280;3957;48.61947800;9.05303100;2023-03-04T04:31:30;96464.09;;;-2.91;100.00
7824;BME280;3957;48.61947800;9.05303100;2023-03-04T04:32:31;96462.63;;;-2.95;100.00
7824;BME280;3957;48.61947800;9.05303100;2023-03-04T04:33:32;96459.66;;;-2.90;100.00
7824;BME280;3957;48.61947800;9.05303100;2023-03-04T04:34:32;96468.38;;;-2.89;100.00
7824;BME280;3957;48.61947800;9.05303100;2023-03-04T04:35:34;96465.25;;;-2.95;100.00
7824;BME280;3957;48.61947800;9.05303100;2023-03-04T04:36:35;96469.03;;;-2.99;100.00
7824;BME280;3957;48.61947800;9.05303100;2023-03-04T04:37:36;96465.47;;;-2.98;100.00
7824;BME280;3957;48.61947800;9.05303100;2023-03-04T04:38:36;96463.09;;;-3.01;100.00
7824;BME280;3957;48.61947800;9.05303100;2023-03-04T04:39:36;96463.50;;;-3.07;100.00
7824;BME280;3957;48.61947800;9.05303100;2023-03-04T04:40:37;96466.59;;;-3.13;100.00
7824;BME280;3957;48.61947800;9.05303100;2023-03-04T04:41:40;96463.47;;;-3.18;100.00
7824;BME280;3957;48.61947800;9.05303100;2023-03-04T04:42:41;96460.66;;;-3.28;100.00
7824;BME280;3957;48.61947800;9.05303100;2023-03-04T04:43:41;96467.16;;;-3.34;100.00
7824;BME280;3957;48.61947800;9.05303100;2023-03-04T04:44:42;96466.66;;;-3.39;100.00
7824;BME280;3957;48.61947800;9.05303100;2023-03-04T04:45:42;96472.00;;;-3.40;100.00
7824;BME280;3957;48.61947800;9.05303100;2023-03-04T04:46:43;96462.03;;;-3.48;100.00
7824;BME280;3957;48.61947800;9.05303100;2023-03-04T04:47:43;96466.00;;;-3.43;100.00
7824;BME280;3957;48.61947800;9.05303100;2023-03-04T04:48:44;96466.47;;;-3.49;100.00
7824;BME280;3957;48.61947800;9.05303100;2023-03-04T04:49:44;96467.72;;;-3.54;100.00
7824;BME280;3957;48.61947800;9.05303100;2023-03-04T04:50:45;96470.75;;;-3.48;100.00
7824;BME280;3957;48.61947800;9.05303100;2023-03-04T04:51:45;96465.19;;;-3.43;100.00